»·PEaware :: N144PW PASI-PAJN

N144PW :: PASI-PAJN

FLIGHT INFORMATION

Flight Status: Arrived
Operator: Privately registered:
United States
More flights under this callsign
Pilot: Stacy K. (11621)
Aircraft: CESSNA 404 TITAN
(C404)
More flights by this aircraft type
Origin: PASI Sitka Rocky Gutierrez
United States
Destination: PAJN Juneau Intl
United States
More flights between these airports :: More routes between these airports
Route: VFR
File this flight plan on PilotEdge
Remarks:
Altitude:
(Current/Filed)
6,500ft
Speed:
(Current/Filed)
180kts
Departed: 08-Aug-17 08:21 AM
Arrived: 08-Aug-17 09:04 AM
Distance/Time
Traveled:
83nm/0:43
Distance/Time
To Go:
Arrived

Flight Plot

Page will automatically refresh every two minutes.

Flight plan parsing failed; only flown route is shown


Map Options




Map Legend


Flown Route
Filed Route
Departure Airport
Arrival Airport
Navaid (VOR, NDB)
Fix

Horizontal Profiles

Position Reports

Time Latitude Longitude Heading Altitude Ground
Speed
08-Aug-17 08:21 57.051777 -135.364649 309 25ft 0kts
08-Aug-17 08:22 57.051777 -135.364649 309 25ft 0kts
08-Aug-17 08:23 57.052280 -135.368334 297 25ft 19kts
08-Aug-17 08:24 57.044588 -135.356977 136 86ft 114kts
08-Aug-17 08:25 57.022345 -135.384060 279 1042ft 154kts
08-Aug-17 08:26 57.052612 -135.444653 326 2076ft 172kts
08-Aug-17 08:27 57.094786 -135.490076 334 3082ft 177kts
08-Aug-17 08:28 57.143839 -135.496935 11 4088ft 181kts
08-Aug-17 08:29 57.188142 -135.452118 32 5090ft 183kts
08-Aug-17 08:30 57.227851 -135.392289 44 6096ft 184kts
08-Aug-17 08:31 57.258647 -135.312207 62 6509ft 204kts
08-Aug-17 08:32 57.287175 -135.218397 56 6506ft 210kts
08-Aug-17 08:33 57.318437 -135.125721 56 6335ft 220kts
08-Aug-17 08:34 57.347883 -135.026167 62 5322ft 219kts
08-Aug-17 08:35 57.372404 -134.923098 67 4336ft 217kts
08-Aug-17 08:36 57.405458 -134.837590 22 3479ft 198kts
08-Aug-17 08:37 57.457236 -134.812181 7 3220ft 190kts
08-Aug-17 08:38 57.509825 -134.807581 355 3221ft 189kts
08-Aug-17 08:39 57.561773 -134.823142 348 3221ft 188kts
08-Aug-17 08:40 57.612961 -134.844818 346 3220ft 188kts
08-Aug-17 08:41 57.664051 -134.866899 346 3219ft 188kts
08-Aug-17 08:42 57.716690 -134.875296 356 3219ft 190kts
08-Aug-17 08:43 57.769739 -134.880624 353 3218ft 191kts
08-Aug-17 08:44 57.822678 -134.893847 351 3217ft 191kts
08-Aug-17 08:45 57.875349 -134.907683 351 3216ft 191kts
08-Aug-17 08:46 57.928100 -134.921090 354 3216ft 191kts
08-Aug-17 08:47 57.981531 -134.922350 355 3216ft 191kts
08-Aug-17 08:48 58.031365 -134.951654 309 3219ft 191kts
08-Aug-17 08:49 58.062295 -135.033170 310 3217ft 191kts
08-Aug-17 08:50 58.098650 -135.107297 313 3218ft 192kts
08-Aug-17 08:51 58.135910 -135.179425 313 3221ft 192kts
08-Aug-17 08:52 58.174049 -135.250139 330 3216ft 193kts
08-Aug-17 08:53 58.197163 -135.243662 46 3223ft 183kts
08-Aug-17 08:54 58.197163 -135.243662 46 3223ft 183kts
08-Aug-17 08:55 58.197163 -135.243662 46 3223ft 183kts
08-Aug-17 08:56 58.197163 -135.243662 46 3223ft 183kts
08-Aug-17 08:57 58.202268 -135.206550 89 3229ft 177kts
08-Aug-17 08:58 58.211243 -135.121513 68 3223ft 186kts
08-Aug-17 08:59 58.241789 -135.045647 12 3225ft 192kts
08-Aug-17 09:00 58.294769 -135.029968 8 3215ft 193kts
08-Aug-17 09:01 58.347643 -135.012085 15 3206ft 194kts
08-Aug-17 09:02 58.359744 -134.922368 97 2713ft 178kts
08-Aug-17 09:03 58.357966 -134.836575 85 2488ft 161kts
08-Aug-17 09:04 58.358725 -134.747520 87 1326ft 161kts
08-Aug-17 09:05 58.359168 -134.668593 88 441ft 135kts
08-Aug-17 09:06 58.359237 -134.608224 91 182ft 110kts
08-Aug-17 09:07 58.353804 -134.567534 60 26ft 19kts
08-Aug-17 09:08 58.355730 -134.573339 286 26ft 20kts
08-Aug-17 09:09 58.357584 -134.581025 281 26ft 11kts
08-Aug-17 09:10 58.358953 -134.584977 31 26ft 13kts
08-Aug-17 09:11 58.359231 -134.585426 191 26ft 0kts
08-Aug-17 09:12 58.359231 -134.585426 191 26ft 0kts

Navigation Log

Ident Type
Flight plan parsing failed, navigation log unavailable